createdAt,value
2018-12-09T00:01:52.121Z,98239.30
2018-12-09T00:04:18.040Z,98233.30
2018-12-09T00:06:44.140Z,98230.97
2018-12-09T00:09:10.188Z,98223.43
2018-12-09T00:11:36.184Z,98224.02
2018-12-09T00:14:02.352Z,98208.19
2018-12-09T00:16:28.332Z,98203.91
2018-12-09T00:18:54.311Z,98203.16
2018-12-09T00:21:20.276Z,98203.72
2018-12-09T00:23:46.324Z,98194.83
2018-12-09T00:26:12.320Z,98188.44
2018-12-09T00:28:38.368Z,98184.95
2018-12-09T00:31:04.365Z,98182.25
2018-12-09T00:33:30.410Z,98176.66
2018-12-09T00:35:56.517Z,98174.52
2018-12-09T00:38:22.577Z,98168.92
2018-12-09T00:40:48.568Z,98161.19
2018-12-09T00:43:14.589Z,98163.89
2018-12-09T00:45:40.636Z,98165.05
2018-12-09T00:48:06.637Z,98158.08
2018-12-09T00:50:32.680Z,98148.63
2018-12-09T00:52:58.677Z,98157.29
2018-12-09T00:55:24.732Z,98154.96
2018-12-09T00:57:50.727Z,98149.78
2018-12-09T01:00:16.877Z,98145.31
2018-12-09T01:02:43.063Z,98145.88
2018-12-09T01:05:09.349Z,98149.17
2018-12-09T01:07:35.324Z,98145.88
2018-12-09T01:10:01.406Z,98141.64
2018-12-09T01:12:27.473Z,98141.22
2018-12-09T01:14:53.527Z,98144.48
2018-12-09T01:17:19.512Z,98142.38
2018-12-09T01:19:45.436Z,98146.99
2018-12-09T01:22:11.380Z,98152.77
2018-12-09T01:24:37.389Z,98158.36
2018-12-09T01:27:03.430Z,98163.20
2018-12-09T01:29:29.533Z,98154.68
2018-12-09T01:31:55.684Z,98152.95
2018-12-09T01:34:21.781Z,98155.05
2018-12-09T01:36:47.929Z,98154.30
2018-12-09T01:39:14.028Z,98147.32
2018-12-09T01:41:40.077Z,98151.17
2018-12-09T01:44:06.311Z,98150.61
2018-12-09T01:46:32.427Z,98148.25
2018-12-09T01:48:58.543Z,98152.11
2018-12-09T01:51:24.676Z,98154.03
2018-12-09T01:54:06.712Z,98154.03
2018-12-09T01:56:32.800Z,98158.45
2018-12-09T01:58:58.913Z,98168.12
2018-12-09T02:01:25.052Z,98165.20
2018-12-09T02:03:51.073Z,98170.41
2018-12-09T02:06:17.125Z,98170.22
2018-12-09T02:08:43.612Z,98171.34
2018-12-09T02:11:09.772Z,98172.69
2018-12-09T02:13:35.861Z,98172.50
2018-12-09T02:16:01.884Z,98170.36
2018-12-09T02:18:27.934Z,98174.97
2018-12-09T02:20:54.032Z,98176.91
2018-12-09T02:23:20.181Z,98177.28
2018-12-09T02:25:46.288Z,98180.18
2018-12-09T02:28:12.328Z,98180.55
2018-12-09T02:30:38.442Z,98186.73
2018-12-09T02:33:04.589Z,98190.79
2018-12-09T02:35:31.284Z,98190.00
2018-12-09T02:37:57.341Z,98187.67
2018-12-09T02:40:23.350Z,98193.07
2018-12-09T02:42:49.492Z,98196.33
2018-12-09T02:45:15.604Z,98196.55
2018-12-09T02:47:41.948Z,98191.30
2018-12-09T02:50:08.117Z,98189.95
2018-12-09T02:52:34.208Z,98197.27
2018-12-09T02:55:00.300Z,98205.36
2018-12-09T02:57:26.453Z,98203.45
2018-12-09T02:59:52.553Z,98182.05
2018-12-09T03:02:18.719Z,98211.13
2018-12-09T03:04:44.737Z,98214.98
2018-12-09T03:07:10.853Z,98218.25
2018-12-09T03:09:36.957Z,98219.41
2018-12-09T03:12:03.301Z,98228.48
2018-12-09T03:14:29.442Z,98230.77
2018-12-09T03:16:55.544Z,98229.98
2018-12-09T03:19:21.677Z,98232.67
2018-12-09T03:21:47.778Z,98225.54
2018-12-09T03:24:13.829Z,98231.92
2018-12-09T03:26:40.345Z,98235.74
2018-12-09T03:29:06.492Z,98236.34
2018-12-09T03:31:32.597Z,98228.80
2018-12-09T03:33:58.680Z,98232.66
2018-12-09T03:36:24.744Z,98240.75
2018-12-09T03:38:50.786Z,98238.62
2018-12-09T03:41:16.905Z,98238.56
2018-12-09T03:43:42.945Z,98244.58
2018-12-09T03:46:09.041Z,98248.20
2018-12-09T03:48:35.081Z,98253.60
2018-12-09T03:51:01.085Z,98254.95
2018-12-09T03:53:27.224Z,98255.55
2018-12-09T03:55:53.347Z,98257.66
2018-12-09T03:58:19.503Z,98264.20
2018-12-09T04:00:45.487Z,98265.55
2018-12-09T04:03:11.532Z,98270.76
2018-12-09T04:05:37.541Z,98273.45
2018-12-09T04:08:04.104Z,98270.53
2018-12-09T04:10:30.192Z,98269.19
2018-12-09T04:12:56.324Z,98278.44
2018-12-09T04:15:22.457Z,98279.78
2018-12-09T04:17:48.642Z,98281.13
2018-12-09T04:20:14.713Z,98289.03
2018-12-09T04:22:40.835Z,98285.75
2018-12-09T04:25:06.969Z,98286.11
2018-12-09T04:29:58.496Z,98292.07
2018-12-09T04:32:24.605Z,98295.36
2018-12-09T04:34:50.664Z,98302.67
2018-12-09T04:37:16.762Z,98303.83
2018-12-09T04:39:42.881Z,98305.17
2018-12-09T04:42:09.028Z,98309.78
2018-12-09T04:44:35.131Z,98317.69
2018-12-09T04:47:01.273Z,98318.38
2018-12-09T04:49:27.589Z,98319.40
2018-12-09T04:51:54.688Z,98316.70
2018-12-09T04:54:20.780Z,98309.16
2018-12-09T04:56:46.806Z,98313.41
2018-12-09T04:59:14.778Z,98308.94
2018-12-09T05:01:41.205Z,98318.38
2018-12-09T05:04:07.305Z,98318.72
2018-12-09T05:06:33.480Z,98322.98
2018-12-09T05:08:59.448Z,98328.95
2018-12-09T05:11:25.489Z,98328.39
2018-12-09T05:13:51.621Z,98335.50
2018-12-09T05:16:18.033Z,98329.88
2018-12-09T05:18:44.184Z,98332.17
2018-12-09T05:21:10.284Z,98336.84
2018-12-09T05:23:36.432Z,98333.73
2018-12-09T05:26:02.444Z,98336.98
2018-12-09T05:28:28.579Z,98340.47
2018-12-09T05:30:54.681Z,98343.17
2018-12-09T05:33:20.836Z,98341.82
2018-12-09T05:35:46.944Z,98349.72
2018-12-09T05:38:13.075Z,98343.73
2018-12-09T05:40:39.076Z,98355.67
2018-12-09T05:43:05.132Z,98352.98
2018-12-09T05:45:31.229Z,98361.64
2018-12-09T05:47:57.272Z,98352.19
2018-12-09T05:50:23.373Z,98363.34
2018-12-09T05:52:49.325Z,98369.31
2018-12-09T05:55:15.424Z,98363.91
2018-12-09T05:57:41.885Z,98377.20
2018-12-09T06:00:07.989Z,98371.80
2018-12-09T06:02:39.964Z,98384.15
2018-12-09T06:05:06.012Z,98372.04
2018-12-09T06:07:32.129Z,98385.10
2018-12-09T06:09:58.224Z,98390.70
2018-12-09T06:12:24.245Z,98398.00
2018-12-09T06:14:50.392Z,98391.06
2018-12-09T06:17:16.492Z,98398.95
2018-12-09T06:19:42.640Z,98394.91
2018-12-09T06:22:08.736Z,98403.36
2018-12-09T06:24:35.088Z,98411.66
2018-12-09T06:27:01.294Z,98414.16
2018-12-09T06:29:27.448Z,98420.67
2018-12-09T06:31:53.559Z,98426.86
2018-12-09T06:34:19.705Z,98427.42
2018-12-09T06:36:45.800Z,98425.64
2018-12-09T06:39:12.160Z,98434.16
2018-12-09T06:41:38.257Z,98425.88
2018-12-09T06:44:04.444Z,98432.39
2018-12-09T06:46:30.514Z,98430.84
2018-12-09T06:48:56.560Z,98431.04
2018-12-09T06:51:22.661Z,98432.98
2018-12-09T06:53:49.000Z,98432.98
2018-12-09T06:56:15.113Z,98431.40
2018-12-09T06:58:41.257Z,98441.44
2018-12-09T07:01:07.257Z,98449.53
2018-12-09T07:03:33.197Z,98452.23
2018-12-09T07:05:59.309Z,98451.08
2018-12-09T07:08:25.741Z,98456.27
2018-12-09T07:10:51.901Z,98461.08
2018-12-09T07:13:17.991Z,98465.36
2018-12-09T07:15:44.148Z,98468.81
2018-12-09T07:18:10.249Z,98474.80
2018-12-09T07:20:36.388Z,98467.27
2018-12-09T07:23:02.813Z,98479.61
2018-12-09T07:25:28.944Z,98482.90
2018-12-09T07:27:55.052Z,98479.61
2018-12-09T07:30:21.205Z,98485.23
2018-12-09T07:32:47.309Z,98493.53
2018-12-09T07:35:13.469Z,98490.83
2018-12-09T07:37:39.860Z,98483.53
2018-12-09T07:40:07.451Z,98491.98
2018-12-09T07:42:33.546Z,98495.80
2018-12-09T07:44:59.586Z,98501.20
2018-12-09T07:47:25.692Z,98484.27
2018-12-09T07:49:51.832Z,98511.23
2018-12-09T07:52:18.272Z,98513.77
2018-12-09T07:54:44.525Z,98517.03
2018-12-09T07:57:10.712Z,98517.62
2018-12-09T07:59:36.749Z,98526.27
2018-12-09T08:02:02.754Z,98527.06
2018-12-09T08:04:28.797Z,98528.18
2018-12-09T08:06:54.809Z,98534.72
2018-12-09T08:09:20.821Z,98537.42
2018-12-09T08:11:46.872Z,98537.98
2018-12-09T08:14:12.881Z,98539.92
2018-12-09T08:16:38.924Z,98543.97
2018-12-09T08:19:05.012Z,98543.18
2018-12-09T08:21:30.957Z,98557.23
2018-12-09T08:23:56.960Z,98553.77
2018-12-09T08:26:23.001Z,98562.63
2018-12-09T08:28:49.012Z,98567.46
2018-12-09T08:31:15.046Z,98574.77
2018-12-09T08:33:41.136Z,98572.06
2018-12-09T08:36:07.200Z,98571.51
2018-12-09T08:38:33.192Z,98574.77
2018-12-09T08:40:59.147Z,98576.70
2018-12-09T08:43:25.136Z,98582.86
2018-12-09T08:45:51.100Z,98583.45
2018-12-09T08:48:17.089Z,98603.09
2018-12-09T08:50:43.137Z,98609.09
2018-12-09T08:53:09.129Z,98617.17
2018-12-09T08:55:35.205Z,98622.14
2018-12-09T08:58:01.178Z,98607.86
2018-12-09T09:00:27.228Z,98615.75
2018-12-09T09:02:53.229Z,98603.81
2018-12-09T09:05:19.176Z,98609.20
2018-12-09T09:07:45.164Z,98603.81
2018-12-09T09:10:11.194Z,98613.25
2018-12-09T09:12:37.233Z,98607.66
2018-12-09T09:15:03.388Z,98622.27
2018-12-09T09:17:29.380Z,98615.75
2018-12-09T09:19:55.386Z,98623.05
2018-12-09T09:22:21.541Z,98634.41
2018-12-09T09:24:47.533Z,98635.75
2018-12-09T09:27:13.676Z,98642.30
2018-12-09T09:29:39.683Z,98646.55
2018-12-09T09:32:05.726Z,98649.59
2018-12-09T09:34:31.732Z,98664.67
2018-12-09T09:36:57.768Z,98664.67
2018-12-09T09:39:23.877Z,98658.28
2018-12-09T09:41:49.916Z,98663.09
2018-12-09T09:44:15.920Z,98659.63
2018-12-09T09:46:41.960Z,98653.88
2018-12-09T09:49:07.964Z,98656.93
2018-12-09T09:51:33.900Z,98654.44
2018-12-09T09:53:59.912Z,98651.38
2018-12-09T09:56:25.974Z,98651.55
2018-12-09T09:58:51.952Z,98663.47
2018-12-09T10:01:18.476Z,98664.97
2018-12-09T10:03:44.528Z,98660.88
2018-12-09T10:06:10.541Z,98669.93
2018-12-09T10:08:36.600Z,98677.16
2018-12-09T10:11:02.681Z,98681.37
2018-12-09T10:13:28.624Z,98675.52
2018-12-09T10:15:54.630Z,98679.88
2018-12-09T10:18:20.670Z,98676.90
2018-12-09T10:20:46.687Z,98684.13
2018-12-09T10:23:12.836Z,98677.09
2018-12-09T10:25:38.820Z,98683.00
2018-12-09T10:28:04.753Z,98683.47
2018-12-09T10:30:30.793Z,98689.58
2018-12-09T10:32:56.793Z,98701.88
2018-12-09T10:35:22.936Z,98696.77
2018-12-09T10:37:48.944Z,98706.30
2018-12-09T10:40:14.980Z,98703.31
2018-12-09T10:42:40.980Z,98705.72
2018-12-09T10:45:06.934Z,98713.73
2018-12-09T10:47:33.028Z,98719.58
2018-12-09T10:49:58.972Z,98715.88
2018-12-09T10:52:24.972Z,98723.33
2018-12-09T10:54:50.913Z,98726.87
2018-12-09T10:57:16.917Z,98730.23
2018-12-09T10:59:42.956Z,98727.36
2018-12-09T11:02:08.964Z,98727.85
2018-12-09T11:04:35.005Z,98731.95
2018-12-09T11:07:01.020Z,98730.66
2018-12-09T11:09:27.057Z,98726.87
2018-12-09T11:11:53.052Z,98732.14
2018-12-09T11:14:19.076Z,98734.05
2018-12-09T11:16:45.012Z,98732.44
2018-12-09T11:19:11.021Z,98736.50
2018-12-09T11:21:37.072Z,98730.59
2018-12-09T11:24:03.072Z,98731.58
2018-12-09T11:26:29.120Z,98729.14
2018-12-09T11:28:55.212Z,98726.13
2018-12-09T11:31:21.168Z,98730.81
2018-12-09T11:33:47.161Z,98735.49
2018-12-09T11:36:13.213Z,98742.42
2018-12-09T11:38:39.205Z,98735.80
2018-12-09T11:41:05.148Z,98749.48
2018-12-09T11:43:31.152Z,98748.07
2018-12-09T11:45:57.196Z,98756.25
2018-12-09T11:48:23.197Z,98754.62
2018-12-09T11:50:49.236Z,98753.97
2018-12-09T11:53:15.240Z,98762.70
2018-12-09T11:55:41.379Z,98758.12
2018-12-09T11:58:11.634Z,98778.34
2018-12-09T12:00:40.512Z,98777.48
2018-12-09T12:03:06.506Z,98785.91
2018-12-09T12:05:32.445Z,98777.16
2018-12-09T12:07:58.464Z,98774.26
2018-12-09T12:10:24.497Z,98775.61
2018-12-09T12:12:50.493Z,98780.03
2018-12-09T12:15:16.527Z,98773.11
2018-12-09T12:17:42.562Z,98775.61
2018-12-09T12:20:08.564Z,98780.86
2018-12-09T12:22:34.609Z,98769.25
2018-12-09T12:25:00.617Z,98770.03
2018-12-09T12:27:26.757Z,98784.31
2018-12-09T12:29:52.795Z,98782.66
2018-12-09T12:32:18.909Z,98793.91
2018-12-09T12:34:44.904Z,98800.94
2018-12-09T12:37:10.948Z,98805.77
2018-12-09T12:39:36.961Z,98805.06
2018-12-09T12:42:02.996Z,98824.77
2018-12-09T12:44:28.996Z,98816.88
2018-12-09T12:46:55.040Z,98813.64
2018-12-09T12:49:21.048Z,98799.17
2018-12-09T12:51:47.089Z,98801.38
2018-12-09T12:54:13.089Z,98801.02
2018-12-09T12:56:39.127Z,98799.06
2018-12-09T12:59:05.144Z,98811.11
2018-12-09T13:01:31.181Z,98815.38
2018-12-09T13:03:57.181Z,98818.31
2018-12-09T13:06:23.130Z,98821.05
2018-12-09T13:08:49.124Z,98826.46
2018-12-09T13:11:15.177Z,98823.98
2018-12-09T13:13:41.168Z,98829.82
2018-12-09T13:16:07.092Z,98843.76
2018-12-09T13:18:33.140Z,98840.06
2018-12-09T13:20:59.132Z,98854.03
2018-12-09T13:23:25.084Z,98865.43
2018-12-09T13:25:51.089Z,98863.34
2018-12-09T13:28:17.115Z,98875.20
2018-12-09T13:30:43.125Z,98880.25
2018-12-09T13:33:09.168Z,98884.70
2018-12-09T13:35:35.232Z,98882.42
2018-12-09T13:38:01.232Z,98887.48
2018-12-09T13:40:27.216Z,98889.81
2018-12-09T13:42:53.156Z,98901.64
2018-12-09T13:45:19.165Z,98901.64
2018-12-09T13:47:45.204Z,98903.94
2018-12-09T13:50:11.213Z,98913.88
2018-12-09T13:52:37.267Z,98913.81
2018-12-09T13:55:03.348Z,98922.17
2018-12-09T13:57:29.304Z,98930.73
2018-12-09T13:59:55.301Z,98941.34
2018-12-09T14:02:21.436Z,98939.22
2018-12-09T14:04:47.446Z,98958.66
2018-12-09T14:07:13.488Z,98969.48
2018-12-09T14:09:39.497Z,98976.69
2018-12-09T14:12:05.543Z,98975.14
2018-12-09T14:14:31.653Z,98975.77
2018-12-09T14:16:57.789Z,98987.00
2018-12-09T14:19:23.784Z,98982.38
2018-12-09T14:21:49.721Z,98989.02
2018-12-09T14:24:15.757Z,98999.42
2018-12-09T14:26:41.760Z,98994.20
2018-12-09T14:29:07.808Z,98997.97
2018-12-09T14:31:34.166Z,99003.19
2018-12-09T14:34:00.256Z,99007.69
2018-12-09T14:36:26.261Z,99008.98
2018-12-09T14:38:52.301Z,99014.31
2018-12-09T14:41:18.412Z,99013.93
2018-12-09T14:43:44.449Z,99016.22
2018-12-09T14:46:10.464Z,99031.81
2018-12-09T14:48:36.491Z,99036.62
2018-12-09T14:51:02.493Z,99046.59
2018-12-09T14:53:28.553Z,99056.13
2018-12-09T14:55:54.650Z,99053.36
2018-12-09T14:58:20.692Z,99063.48
2018-12-09T15:00:46.696Z,99058.28
2018-12-09T15:03:12.736Z,99062.97
2018-12-09T15:05:38.741Z,99076.50
2018-12-09T15:08:04.784Z,99084.80
2018-12-09T15:10:30.786Z,99084.23
2018-12-09T15:12:56.812Z,99090.59
2018-12-09T15:15:22.852Z,99099.28
2018-12-09T15:17:48.857Z,99090.89
2018-12-09T15:20:14.909Z,99096.50
2018-12-09T15:22:40.901Z,99102.66
2018-12-09T15:25:07.690Z,99109.73
2018-12-09T15:27:33.673Z,99123.63
2018-12-09T15:29:59.810Z,99118.58
2018-12-09T15:32:25.813Z,99121.98
2018-12-09T15:34:51.957Z,99122.41
2018-12-09T15:37:17.960Z,99128.05
2018-12-09T15:39:44.004Z,99133.67
2018-12-09T15:42:10.009Z,99129.16
2018-12-09T15:44:36.060Z,99142.66
2018-12-09T15:47:02.050Z,99152.63
2018-12-09T15:49:28.410Z,99158.79
2018-12-09T15:51:54.604Z,99152.72
2018-12-09T15:54:20.544Z,99158.81
2018-12-09T15:56:46.622Z,99159.77
2018-12-09T15:59:12.700Z,99169.28
2018-12-09T16:01:38.701Z,99167.73
2018-12-09T16:04:04.753Z,99179.45
2018-12-09T16:06:31.525Z,99179.33
2018-12-09T16:08:57.504Z,99194.79
2018-12-09T16:11:23.592Z,99194.55
2018-12-09T16:13:49.564Z,99209.37
2018-12-09T16:16:15.569Z,99212.27
2018-12-09T16:18:41.580Z,99218.66
2018-12-09T16:21:07.620Z,99229.22
2018-12-09T16:23:33.624Z,99224.93
2018-12-09T16:25:59.576Z,99225.83
2018-12-09T16:28:25.573Z,99233.91
2018-12-09T16:30:51.705Z,99233.94
2018-12-09T16:33:17.822Z,99247.52
2018-12-09T16:35:43.861Z,99249.31
2018-12-09T16:38:09.871Z,99258.84
2018-12-09T16:40:36.013Z,99255.75
2018-12-09T16:43:02.017Z,99265.06
2018-12-09T16:45:28.057Z,99275.58
2018-12-09T16:47:54.061Z,99275.42
2018-12-09T16:50:20.109Z,99278.33
2018-12-09T16:52:46.105Z,99273.42
2018-12-09T16:55:12.156Z,99284.44
2018-12-09T16:57:38.152Z,99300.27
2018-12-09T17:00:04.332Z,99312.80
2018-12-09T17:02:30.298Z,99317.72
2018-12-09T17:04:56.236Z,99319.73
2018-12-09T17:07:22.244Z,99328.39
2018-12-09T17:09:48.291Z,99322.83
2018-12-09T17:12:14.317Z,99330.25
2018-12-09T17:14:40.345Z,99345.58
2018-12-09T17:17:06.382Z,99352.79
2018-12-09T17:19:32.352Z,99361.36
2018-12-09T17:21:58.293Z,99366.42
2018-12-09T17:24:24.299Z,99375.20
2018-12-09T17:26:50.246Z,99374.73
2018-12-09T17:29:16.244Z,99389.27
2018-12-09T17:31:42.314Z,99392.39
2018-12-09T17:34:08.304Z,99382.01
2018-12-09T17:36:34.441Z,99392.02
2018-12-09T17:39:01.376Z,99411.98
2018-12-09T17:41:27.405Z,99415.14
2018-12-09T17:43:53.408Z,99431.39
2018-12-09T17:46:19.453Z,99420.05
2018-12-09T17:48:45.460Z,99429.98
2018-12-09T17:51:11.493Z,99449.15
2018-12-09T17:53:37.496Z,99449.15
2018-12-09T17:56:03.489Z,99457.38
2018-12-09T17:58:29.444Z,99463.58
2018-12-09T18:00:55.486Z,99466.50
2018-12-09T18:03:21.501Z,99472.92
2018-12-09T18:05:47.532Z,99479.58
2018-12-09T18:08:13.532Z,99475.93
2018-12-09T18:10:39.579Z,99490.72
2018-12-09T18:13:05.605Z,99502.77
2018-12-09T18:15:31.606Z,99510.81
2018-12-09T18:17:57.749Z,99504.84
2018-12-09T18:20:23.749Z,99515.53
2018-12-09T18:22:49.706Z,99532.69
2018-12-09T18:25:15.801Z,99532.89
2018-12-09T18:27:41.846Z,99555.58
2018-12-09T18:30:07.956Z,99544.73
2018-12-09T18:32:33.989Z,99549.25
2018-12-09T18:34:59.992Z,99546.19
2018-12-09T18:37:26.077Z,99552.41
2018-12-09T18:39:52.040Z,99557.84
2018-12-09T18:42:18.080Z,99558.98
2018-12-09T18:44:44.089Z,99573.89
2018-12-09T18:47:10.251Z,99568.59
2018-12-09T18:49:36.332Z,99581.92
2018-12-09T18:52:02.291Z,99587.25
2018-12-09T18:54:28.384Z,99592.19
2018-12-09T18:56:54.432Z,99607.68
2018-12-09T18:59:20.435Z,99615.02
2018-12-09T19:01:46.472Z,99625.41
2018-12-09T19:04:12.476Z,99624.84
2018-12-09T19:06:38.425Z,99646.20
2018-12-09T19:09:04.977Z,99638.08
2018-12-09T19:11:30.953Z,99632.21
2018-12-09T19:13:57.036Z,99646.31
2018-12-09T19:16:23.004Z,99659.76
2018-12-09T19:18:49.049Z,99662.05
2018-12-09T19:21:15.044Z,99662.74
2018-12-09T19:23:41.088Z,99673.89
2018-12-09T19:26:07.097Z,99675.73
2018-12-09T19:28:33.140Z,99684.41
2018-12-09T19:30:59.136Z,99686.45
2018-12-09T19:33:25.411Z,99706.11
2018-12-09T19:35:51.394Z,99712.97
2018-12-09T19:38:17.532Z,99711.09
2018-12-09T19:40:43.545Z,99718.20
2018-12-09T19:43:09.581Z,99733.20
2018-12-09T19:45:35.584Z,99735.23
2018-12-09T19:48:01.625Z,99743.14
2018-12-09T19:50:27.629Z,99743.24
2018-12-09T19:52:53.675Z,99746.88
2018-12-09T19:55:19.785Z,99761.07
2018-12-09T19:57:45.818Z,99767.84
2018-12-09T20:00:11.836Z,99772.23
2018-12-09T20:02:37.932Z,99776.98
2018-12-09T20:05:04.837Z,99796.41
2018-12-09T20:07:30.897Z,99787.48
2018-12-09T20:09:56.937Z,99792.78
2018-12-09T20:12:22.969Z,99804.74
2018-12-09T20:14:49.012Z,99808.13
2018-12-09T20:17:15.000Z,99811.39
2018-12-09T20:19:40.949Z,99807.88
2018-12-09T20:22:06.959Z,99812.03
2018-12-09T20:24:33.136Z,99811.02
2018-12-09T20:26:59.096Z,99814.41
2018-12-09T20:29:25.148Z,99826.34
2018-12-09T20:31:51.140Z,99836.95
2018-12-09T20:34:17.085Z,99840.33
2018-12-09T20:36:43.085Z,99849.00
2018-12-09T20:39:09.133Z,99858.01
2018-12-09T20:41:35.162Z,99863.98
2018-12-09T20:44:01.186Z,99866.68
2018-12-09T20:46:27.181Z,99867.95
2018-12-09T20:48:53.233Z,99870.19
2018-12-09T20:51:19.224Z,99883.04
2018-12-09T20:53:45.264Z,99895.34
2018-12-09T20:56:11.274Z,99891.15
2018-12-09T20:58:37.440Z,99903.88
2018-12-09T21:01:03.541Z,99906.70
2018-12-09T21:03:29.545Z,99905.90
2018-12-09T21:05:55.584Z,99907.13
2018-12-09T21:08:21.592Z,99911.98
2018-12-09T21:10:47.640Z,99910.96
2018-12-09T21:13:13.644Z,99923.22
2018-12-09T21:15:39.684Z,99933.03
2018-12-09T21:18:05.680Z,99942.27
2018-12-09T21:20:31.620Z,99929.86
2018-12-09T21:22:57.638Z,99932.34
2018-12-09T21:25:23.773Z,99937.53
2018-12-09T21:27:49.785Z,99933.34
2018-12-09T21:30:15.820Z,99945.05
2018-12-09T21:32:41.828Z,99948.55
2018-12-09T21:35:07.865Z,99956.20
2018-12-09T21:37:33.872Z,99961.47
2018-12-09T21:40:00.030Z,99962.83
2018-12-09T21:42:26.008Z,99959.43
2018-12-09T21:44:51.957Z,99960.86
2018-12-09T21:47:17.961Z,99970.11
2018-12-09T21:49:44.009Z,99972.02
2018-12-09T21:52:10.001Z,99970.22
2018-12-09T21:54:36.057Z,99975.96
2018-12-09T21:57:02.180Z,99982.47
2018-12-09T21:59:28.169Z,99989.56
2018-12-09T22:01:54.124Z,99998.22
2018-12-09T22:04:20.120Z,99999.14
2018-12-09T22:06:46.064Z,100017.05
2018-12-09T22:09:12.164Z,100018.72
2018-12-09T22:11:38.209Z,100018.80
2018-12-09T22:14:04.228Z,100030.17
2018-12-09T22:16:30.264Z,100026.44
2018-12-09T22:18:56.273Z,100034.33
2018-12-09T22:21:22.301Z,100041.09
2018-12-09T22:23:48.300Z,100039.56
2018-12-09T22:26:14.245Z,100050.16
2018-12-09T22:28:40.244Z,100050.70
2018-12-09T22:31:06.184Z,100058.02
2018-12-09T22:33:32.188Z,100066.70
2018-12-09T22:35:58.129Z,100073.80
2018-12-09T22:38:24.144Z,100071.97
2018-12-09T22:40:50.180Z,100074.19
2018-12-09T22:43:16.180Z,100086.69
2018-12-09T22:45:42.239Z,100078.35
2018-12-09T22:48:08.224Z,100088.11
2018-12-09T22:50:34.248Z,100087.34
2018-12-09T22:53:00.284Z,100094.09
2018-12-09T22:55:26.303Z,100105.45
2018-12-09T22:57:52.336Z,100110.97
2018-12-09T23:00:26.133Z,100121.05
2018-12-09T23:02:52.176Z,100128.61
2018-12-09T23:05:18.164Z,100122.72
2018-12-09T23:07:44.100Z,100128.93
2018-12-09T23:10:10.104Z,100128.70
2018-12-09T23:12:36.052Z,100130.93
2018-12-09T23:15:02.064Z,100134.98
2018-12-09T23:17:28.170Z,100141.52
2018-12-09T23:19:54.201Z,100134.51
2018-12-09T23:22:20.145Z,100141.81
2018-12-09T23:24:46.149Z,100132.45
2018-12-09T23:27:12.165Z,100141.11
2018-12-09T23:29:38.109Z,100132.84
2018-12-09T23:32:04.113Z,100146.06
2018-12-09T23:34:30.153Z,100149.31
2018-12-09T23:36:56.276Z,100156.94
2018-12-09T23:39:22.305Z,100160.77
2018-12-09T23:41:48.310Z,100160.77
2018-12-09T23:44:14.344Z,100164.12
2018-12-09T23:46:40.837Z,100175.16
2018-12-09T23:49:06.827Z,100186.06
2018-12-09T23:51:32.805Z,100204.17
2018-12-09T23:53:58.869Z,100207.97
2018-12-09T23:56:24.956Z,100215.62
2018-12-09T23:58:50.997Z,100191.05
